createdAt,value
2018-05-07T00:00:01.345Z,0
2018-05-07T00:01:01.937Z,0
2018-05-07T00:02:02.441Z,0
2018-05-07T00:03:03.009Z,0
2018-05-07T00:04:03.625Z,0
2018-05-07T00:05:04.157Z,0
2018-05-07T00:06:04.813Z,0
2018-05-07T00:07:05.305Z,0
2018-05-07T00:08:05.923Z,0
2018-05-07T00:09:06.457Z,0
2018-05-07T00:10:07.030Z,0
2018-05-07T00:11:07.634Z,0
2018-05-07T00:12:08.176Z,0
2018-05-07T00:13:08.748Z,0
2018-05-07T00:14:09.322Z,0
2018-05-07T00:15:09.894Z,0
2018-05-07T00:16:10.467Z,0
2018-05-07T00:17:11.040Z,0
2018-05-07T00:18:11.612Z,0
2018-05-07T00:19:12.185Z,0
2018-05-07T00:20:12.756Z,0
2018-05-07T00:21:13.328Z,0
2018-05-07T00:22:13.900Z,0
2018-05-07T00:23:14.474Z,0
2018-05-07T00:24:15.050Z,0
2018-05-07T00:25:15.619Z,0
2018-05-07T00:26:16.192Z,0
2018-05-07T00:27:16.786Z,0
2018-05-07T00:28:17.359Z,0
2018-05-07T00:29:17.912Z,0
2018-05-07T00:30:18.491Z,0
2018-05-07T00:31:19.060Z,0
2018-05-07T00:32:19.633Z,0
2018-05-07T00:33:20.253Z,0
2018-05-07T00:34:20.786Z,0
2018-05-07T00:35:21.355Z,0
2018-05-07T00:36:21.926Z,0
2018-05-07T00:37:22.500Z,0
2018-05-07T00:38:23.072Z,0
2018-05-07T00:39:23.644Z,0
2018-05-07T00:40:24.217Z,0
2018-05-07T00:41:24.789Z,0
2018-05-07T00:42:25.361Z,0
2018-05-07T00:43:25.935Z,0
2018-05-07T00:44:26.508Z,0
2018-05-07T00:45:27.085Z,0
2018-05-07T00:46:27.656Z,0
2018-05-07T00:47:28.230Z,0
2018-05-07T00:48:28.804Z,0
2018-05-07T00:49:29.386Z,0
2018-05-07T00:50:30.025Z,0
2018-05-07T00:51:30.536Z,0
2018-05-07T00:52:31.108Z,0
2018-05-07T00:53:31.683Z,0
2018-05-07T00:54:32.255Z,0
2018-05-07T00:55:32.830Z,0
2018-05-07T00:56:33.406Z,0
2018-05-07T00:57:33.975Z,0
2018-05-07T00:58:34.547Z,0
2018-05-07T00:59:35.123Z,0
2018-05-07T01:00:35.693Z,0
2018-05-07T01:01:36.265Z,0
2018-05-07T01:02:36.837Z,0
2018-05-07T01:03:37.408Z,0
2018-05-07T01:04:37.984Z,0
2018-05-07T01:05:38.551Z,0
2018-05-07T01:06:39.124Z,0
2018-05-07T01:07:39.697Z,0
2018-05-07T01:08:40.269Z,0
2018-05-07T01:09:40.841Z,0
2018-05-07T01:10:41.414Z,0
2018-05-07T01:11:41.984Z,0
2018-05-07T01:12:42.564Z,0
2018-05-07T01:13:43.131Z,0
2018-05-07T01:14:43.705Z,0
2018-05-07T01:15:44.314Z,0
2018-05-07T01:16:44.857Z,0
2018-05-07T01:17:45.437Z,0
2018-05-07T01:18:46.009Z,0
2018-05-07T01:19:46.583Z,0
2018-05-07T01:20:47.156Z,0
2018-05-07T01:21:47.730Z,0
2018-05-07T01:22:48.302Z,0
2018-05-07T01:23:48.876Z,0
2018-05-07T01:24:49.450Z,0
2018-05-07T01:25:50.024Z,0
2018-05-07T01:26:50.595Z,0
2018-05-07T01:27:51.177Z,0
2018-05-07T01:28:51.751Z,0
2018-05-07T01:29:52.322Z,0
2018-05-07T01:30:52.896Z,0
2018-05-07T01:31:53.467Z,0
2018-05-07T01:32:54.041Z,0
2018-05-07T01:33:54.614Z,0
2018-05-07T01:34:55.186Z,0
2018-05-07T01:35:55.770Z,0
2018-05-07T01:36:56.342Z,0
2018-05-07T01:37:56.920Z,0
2018-05-07T01:38:57.488Z,0
2018-05-07T01:39:58.063Z,0
2018-05-07T01:40:58.644Z,0
2018-05-07T01:41:59.218Z,0
2018-05-07T01:42:59.791Z,0
2018-05-07T01:44:00.364Z,0
2018-05-07T01:45:00.947Z,0
2018-05-07T01:46:01.520Z,0
2018-05-07T01:47:02.093Z,0
2018-05-07T01:48:02.667Z,0
2018-05-07T01:49:03.248Z,0
2018-05-07T01:50:03.822Z,0
2018-05-07T01:51:04.393Z,0
2018-05-07T01:52:04.963Z,0
2018-05-07T01:53:05.546Z,0
2018-05-07T01:54:06.119Z,0
2018-05-07T01:55:06.691Z,0
2018-05-07T01:56:07.263Z,0
2018-05-07T01:57:07.842Z,0
2018-05-07T01:58:08.409Z,0
2018-05-07T01:59:08.980Z,0
2018-05-07T02:00:09.551Z,0
2018-05-07T02:01:10.124Z,0
2018-05-07T02:02:10.699Z,0
2018-05-07T02:03:11.281Z,0
2018-05-07T02:04:11.851Z,0
2018-05-07T02:05:12.423Z,0
2018-05-07T02:06:12.996Z,0
2018-05-07T02:07:13.566Z,0
2018-05-07T02:08:14.140Z,0
2018-05-07T02:09:14.708Z,0
2018-05-07T02:10:15.282Z,0
2018-05-07T02:11:15.851Z,0
2018-05-07T02:12:16.424Z,0
2018-05-07T02:13:16.998Z,0
2018-05-07T02:14:17.568Z,0
2018-05-07T02:15:18.139Z,0
2018-05-07T02:16:18.718Z,0
2018-05-07T02:17:19.285Z,0
2018-05-07T02:18:19.858Z,0
2018-05-07T02:19:20.432Z,0
2018-05-07T02:20:21.005Z,0
2018-05-07T02:21:21.576Z,0
2018-05-07T02:22:22.147Z,0
2018-05-07T02:23:22.720Z,0
2018-05-07T02:24:23.292Z,0
2018-05-07T02:25:23.863Z,0
2018-05-07T02:26:24.434Z,0
2018-05-07T02:27:25.010Z,0
2018-05-07T02:28:25.575Z,0
2018-05-07T02:29:26.152Z,0
2018-05-07T02:30:26.720Z,0
2018-05-07T02:31:27.321Z,0
2018-05-07T02:32:27.862Z,0
2018-05-07T02:33:28.435Z,0
2018-05-07T02:34:29.005Z,0
2018-05-07T02:35:29.579Z,0
2018-05-07T02:36:30.160Z,0
2018-05-07T02:37:30.731Z,0
2018-05-07T02:38:31.303Z,0
2018-05-07T02:39:31.874Z,0
2018-05-07T02:40:32.447Z,0
2018-05-07T02:41:33.017Z,0
2018-05-07T02:42:33.588Z,0
2018-05-07T02:43:34.160Z,0
2018-05-07T02:44:34.730Z,0
2018-05-07T02:45:35.303Z,0
2018-05-07T02:46:35.884Z,0
2018-05-07T02:47:36.464Z,0
2018-05-07T02:48:37.036Z,0
2018-05-07T02:49:37.611Z,0
2018-05-07T02:50:38.182Z,0
2018-05-07T02:51:38.764Z,0
2018-05-07T02:52:39.334Z,0
2018-05-07T02:53:39.911Z,0
2018-05-07T02:54:40.478Z,0
2018-05-07T02:55:41.049Z,0
2018-05-07T02:56:41.621Z,0
2018-05-07T02:57:42.195Z,0
2018-05-07T02:58:42.766Z,0
2018-05-07T02:59:43.340Z,0
2018-05-07T03:00:43.911Z,0
2018-05-07T03:01:44.484Z,0
2018-05-07T03:02:45.055Z,0
2018-05-07T03:03:45.626Z,0
2018-05-07T03:04:46.196Z,0
2018-05-07T03:05:46.769Z,0
2018-05-07T03:06:47.339Z,0
2018-05-07T03:07:47.915Z,0
2018-05-07T03:08:48.482Z,0
2018-05-07T03:09:49.065Z,0
2018-05-07T03:10:49.645Z,0
2018-05-07T03:11:50.216Z,0
2018-05-07T03:12:50.809Z,0
2018-05-07T03:13:51.374Z,0
2018-05-07T03:14:51.953Z,0
2018-05-07T03:15:52.525Z,0
2018-05-07T03:16:53.098Z,0
2018-05-07T03:17:53.670Z,0
2018-05-07T03:18:54.243Z,0
2018-05-07T03:19:54.817Z,0
2018-05-07T03:20:55.397Z,0
2018-05-07T03:21:55.969Z,0
2018-05-07T03:22:56.540Z,0
2018-05-07T03:23:57.115Z,0
2018-05-07T03:24:57.685Z,0
2018-05-07T03:25:58.261Z,4
2018-05-07T03:26:58.828Z,0
2018-05-07T03:27:59.400Z,0
2018-05-07T03:28:59.975Z,0
2018-05-07T03:30:00.541Z,4
2018-05-07T03:31:01.112Z,0
2018-05-07T03:32:01.683Z,4
2018-05-07T03:33:02.254Z,0
2018-05-07T03:34:02.826Z,4
2018-05-07T03:35:03.394Z,0
2018-05-07T03:36:03.965Z,4
2018-05-07T03:37:04.536Z,4
2018-05-07T03:38:05.106Z,4
2018-05-07T03:39:05.680Z,4
2018-05-07T03:40:06.247Z,4
2018-05-07T03:41:06.818Z,4
2018-05-07T03:42:07.399Z,8
2018-05-07T03:43:07.981Z,8
2018-05-07T03:44:08.558Z,12
2018-05-07T03:45:09.138Z,12
2018-05-07T03:46:09.720Z,12
2018-05-07T03:47:10.294Z,16
2018-05-07T03:48:10.867Z,12
2018-05-07T03:49:11.439Z,16
2018-05-07T03:50:12.011Z,16
2018-05-07T03:51:12.584Z,20
2018-05-07T03:52:13.157Z,20
2018-05-07T03:53:13.732Z,24
2018-05-07T03:54:14.303Z,24
2018-05-07T03:55:14.876Z,24
2018-05-07T03:56:15.449Z,32
2018-05-07T03:57:16.021Z,32
2018-05-07T03:58:16.592Z,32
2018-05-07T03:59:17.165Z,36
2018-05-07T04:00:17.738Z,40
2018-05-07T04:01:18.311Z,44
2018-05-07T04:02:18.882Z,48
2018-05-07T04:03:19.456Z,48
2018-05-07T04:04:20.031Z,52
2018-05-07T04:05:20.599Z,56
2018-05-07T04:06:21.171Z,60
2018-05-07T04:07:21.747Z,64
2018-05-07T04:08:22.314Z,60
2018-05-07T04:09:22.885Z,64
2018-05-07T04:10:23.459Z,68
2018-05-07T04:11:24.032Z,76
2018-05-07T04:12:24.607Z,76
2018-05-07T04:13:25.177Z,80
2018-05-07T04:14:25.753Z,84
2018-05-07T04:15:26.323Z,88
2018-05-07T04:16:26.893Z,92
2018-05-07T04:17:27.464Z,92
2018-05-07T04:18:28.037Z,100
2018-05-07T04:19:28.613Z,100
2018-05-07T04:20:29.195Z,104
2018-05-07T04:21:29.771Z,108
2018-05-07T04:22:30.353Z,112
2018-05-07T04:23:30.973Z,112
2018-05-07T04:24:31.500Z,116
2018-05-07T04:25:32.073Z,124
2018-05-07T04:26:32.650Z,124
2018-05-07T04:27:33.219Z,132
2018-05-07T04:28:33.792Z,132
2018-05-07T04:29:34.365Z,136
2018-05-07T04:30:34.981Z,140
2018-05-07T04:31:35.511Z,144
2018-05-07T04:32:36.086Z,148
2018-05-07T04:33:36.663Z,152
2018-05-07T04:34:37.241Z,160
2018-05-07T04:35:37.817Z,164
2018-05-07T04:36:38.389Z,172
2018-05-07T04:37:38.972Z,172
2018-05-07T04:38:39.548Z,176
2018-05-07T04:39:40.130Z,180
2018-05-07T04:40:40.713Z,184
2018-05-07T04:41:41.287Z,192
2018-05-07T04:42:41.858Z,192
2018-05-07T04:43:42.442Z,196
2018-05-07T04:44:43.015Z,204
2018-05-07T04:45:43.589Z,208
2018-05-07T04:46:44.161Z,212
2018-05-07T04:47:44.737Z,216
2018-05-07T04:48:45.392Z,220
2018-05-07T04:49:45.885Z,224
2018-05-07T04:50:46.488Z,232
2018-05-07T04:51:47.043Z,236
2018-05-07T04:52:47.617Z,240
2018-05-07T04:53:48.190Z,240
2018-05-07T04:54:48.766Z,248
2018-05-07T04:55:49.343Z,252
2018-05-07T04:56:49.914Z,256
2018-05-07T04:57:50.487Z,264
2018-05-07T04:58:51.062Z,268
2018-05-07T04:59:51.648Z,272
2018-05-07T05:00:52.229Z,276
2018-05-07T05:01:52.804Z,280
2018-05-07T05:02:53.379Z,280
2018-05-07T05:03:53.953Z,288
2018-05-07T05:04:54.531Z,288
2018-05-07T05:05:55.102Z,296
2018-05-07T05:06:55.679Z,296
2018-05-07T05:07:56.263Z,300
2018-05-07T05:08:56.847Z,304
2018-05-07T05:09:57.423Z,308
2018-05-07T05:10:58.007Z,308
2018-05-07T05:11:58.580Z,308
2018-05-07T05:12:59.156Z,316
2018-05-07T05:13:59.740Z,316
2018-05-07T05:15:00.317Z,320
2018-05-07T05:16:00.892Z,324
2018-05-07T05:17:01.468Z,324
2018-05-07T05:18:02.041Z,332
2018-05-07T05:19:02.618Z,332
2018-05-07T05:20:03.191Z,336
2018-05-07T05:21:03.777Z,340
2018-05-07T05:22:04.341Z,344
2018-05-07T05:23:04.914Z,344
2018-05-07T05:24:05.490Z,348
2018-05-07T05:25:06.066Z,356
2018-05-07T05:26:06.641Z,356
2018-05-07T05:27:07.231Z,360
2018-05-07T05:28:07.812Z,364
2018-05-07T05:29:08.387Z,364
2018-05-07T05:30:08.961Z,368
2018-05-07T05:31:09.539Z,376
2018-05-07T05:32:10.113Z,376
2018-05-07T05:33:10.699Z,380
2018-05-07T05:34:11.272Z,380
2018-05-07T05:35:11.848Z,384
2018-05-07T05:36:12.424Z,388
2018-05-07T05:37:13.015Z,388
2018-05-07T05:38:13.591Z,388
2018-05-07T05:39:14.163Z,396
2018-05-07T05:40:14.738Z,396
2018-05-07T05:41:15.313Z,400
2018-05-07T05:42:15.887Z,404
2018-05-07T05:43:16.466Z,404
2018-05-07T05:44:17.050Z,408
2018-05-07T05:45:17.626Z,412
2018-05-07T05:46:18.207Z,416
2018-05-07T05:47:18.777Z,420
2018-05-07T05:48:19.354Z,424
2018-05-07T05:49:19.926Z,424
2018-05-07T05:50:20.521Z,428
2018-05-07T05:51:21.084Z,432
2018-05-07T05:52:21.654Z,432
2018-05-07T05:53:22.229Z,436
2018-05-07T05:54:22.804Z,440
2018-05-07T05:55:23.385Z,440
2018-05-07T05:56:24.032Z,448
2018-05-07T05:57:24.534Z,448
2018-05-07T05:58:25.112Z,452
2018-05-07T05:59:25.686Z,456
2018-05-07T06:00:26.273Z,460
2018-05-07T06:01:26.849Z,464
2018-05-07T06:02:27.425Z,468
2018-05-07T06:03:28.001Z,468
2018-05-07T06:04:28.579Z,472
2018-05-07T06:05:29.153Z,472
2018-05-07T06:06:29.731Z,476
2018-05-07T06:07:30.307Z,476
2018-05-07T06:08:30.883Z,484
2018-05-07T06:09:31.460Z,484
2018-05-07T06:10:32.034Z,484
2018-05-07T06:11:32.609Z,488
2018-05-07T06:12:33.186Z,488
2018-05-07T06:13:33.762Z,492
2018-05-07T06:14:34.363Z,492
2018-05-07T06:15:34.913Z,496
2018-05-07T06:16:35.490Z,500
2018-05-07T06:17:36.068Z,500
2018-05-07T06:18:36.653Z,500
2018-05-07T06:19:37.229Z,500
2018-05-07T06:20:37.809Z,504
2018-05-07T06:21:38.383Z,508
2018-05-07T06:22:38.958Z,508
2018-05-07T06:23:39.536Z,512
2018-05-07T06:24:40.112Z,512
2018-05-07T06:25:40.689Z,512
2018-05-07T06:26:41.265Z,512
2018-05-07T06:27:41.841Z,520
2018-05-07T06:28:42.418Z,516
2018-05-07T06:29:42.994Z,524
2018-05-07T06:30:43.573Z,524
2018-05-07T06:31:44.149Z,524
2018-05-07T06:32:44.726Z,528
2018-05-07T06:33:45.304Z,528
2018-05-07T06:34:45.882Z,532
2018-05-07T06:35:46.459Z,532
2018-05-07T06:36:47.036Z,532
2018-05-07T06:37:47.614Z,536
2018-05-07T06:38:48.193Z,536
2018-05-07T06:39:48.773Z,536
2018-05-07T06:40:49.346Z,540
2018-05-07T06:41:49.934Z,540
2018-05-07T06:42:50.510Z,540
2018-05-07T06:43:51.086Z,540
2018-05-07T06:44:51.666Z,544
2018-05-07T06:45:52.244Z,548
2018-05-07T06:46:52.820Z,548
2018-05-07T06:47:53.396Z,548
2018-05-07T06:48:53.975Z,548
2018-05-07T06:49:54.557Z,552
2018-05-07T06:50:55.132Z,548
2018-05-07T06:51:55.710Z,552
2018-05-07T06:52:56.287Z,552
2018-05-07T06:53:56.866Z,552
2018-05-07T06:54:57.450Z,556
2018-05-07T06:55:58.035Z,556
2018-05-07T06:56:58.613Z,556
2018-05-07T06:57:59.191Z,556
2018-05-07T06:58:59.768Z,560
2018-05-07T07:00:00.349Z,556
2018-05-07T07:01:00.924Z,560
2018-05-07T07:02:01.552Z,552
2018-05-07T07:03:02.215Z,552
2018-05-07T07:04:02.709Z,552
2018-05-07T07:05:03.286Z,556
2018-05-07T07:06:03.874Z,556
2018-05-07T07:07:04.461Z,556
2018-05-07T07:08:05.100Z,560
2018-05-07T07:09:05.623Z,560
2018-05-07T07:10:06.206Z,560
2018-05-07T07:11:06.794Z,564
2018-05-07T07:12:07.373Z,564
2018-05-07T07:13:07.951Z,564
2018-05-07T07:14:08.533Z,568
2018-05-07T07:15:09.109Z,568
2018-05-07T07:16:09.688Z,568
2018-05-07T07:17:10.268Z,568
2018-05-07T07:18:10.842Z,572
2018-05-07T07:19:11.422Z,572
2018-05-07T07:20:12.000Z,572
2018-05-07T07:21:12.578Z,576
2018-05-07T07:22:13.159Z,572
2018-05-07T07:23:13.735Z,576
2018-05-07T07:24:14.315Z,576
2018-05-07T07:25:14.899Z,580
2018-05-07T07:26:15.471Z,580
2018-05-07T07:27:16.061Z,584
2018-05-07T07:28:16.654Z,584
2018-05-07T07:29:17.228Z,584
2018-05-07T07:30:17.809Z,584
2018-05-07T07:31:18.387Z,588
2018-05-07T07:32:18.966Z,588
2018-05-07T07:33:19.555Z,588
2018-05-07T07:34:20.153Z,588
2018-05-07T07:35:20.729Z,592
2018-05-07T07:36:21.304Z,592
2018-05-07T07:37:21.887Z,588
2018-05-07T07:38:22.464Z,596
2018-05-07T07:39:23.048Z,596
2018-05-07T07:40:23.625Z,596
2018-05-07T07:41:24.214Z,596
2018-05-07T07:42:24.795Z,600
2018-05-07T07:43:25.385Z,604
2018-05-07T07:44:25.960Z,600
2018-05-07T07:45:26.537Z,604
2018-05-07T07:46:27.117Z,604
2018-05-07T07:47:27.694Z,604
2018-05-07T07:48:28.276Z,604
2018-05-07T07:49:28.855Z,608
2018-05-07T07:50:29.446Z,608
2018-05-07T07:51:30.027Z,608
2018-05-07T07:52:30.720Z,608
2018-05-07T07:53:31.221Z,612
2018-05-07T07:54:31.790Z,608
2018-05-07T07:55:32.381Z,612
2018-05-07T07:56:32.962Z,616
2018-05-07T07:57:33.540Z,616
2018-05-07T07:58:34.119Z,616
2018-05-07T07:59:34.699Z,616
2018-05-07T08:00:35.279Z,620
2018-05-07T08:01:35.931Z,620
2018-05-07T08:02:36.444Z,620
2018-05-07T08:03:37.023Z,624
2018-05-07T08:04:37.603Z,624
2018-05-07T08:05:38.194Z,624
2018-05-07T08:06:38.808Z,624
2018-05-07T08:07:39.353Z,628
2018-05-07T08:08:39.932Z,628
2018-05-07T08:09:40.510Z,628
2018-05-07T08:10:41.091Z,628
2018-05-07T08:11:41.670Z,632
2018-05-07T08:12:42.249Z,632
2018-05-07T08:13:42.833Z,632
2018-05-07T08:14:43.419Z,636
2018-05-07T08:15:43.999Z,640
2018-05-07T08:16:44.579Z,636
2018-05-07T08:17:45.158Z,640
2018-05-07T08:18:45.747Z,640
2018-05-07T08:19:46.325Z,640
2018-05-07T08:20:46.906Z,644
2018-05-07T08:21:47.496Z,644
2018-05-07T08:22:48.076Z,648
2018-05-07T08:23:48.655Z,652
2018-05-07T08:24:49.256Z,648
2018-05-07T08:25:49.828Z,648
2018-05-07T08:26:50.408Z,652
2018-05-07T08:27:50.999Z,652
2018-05-07T08:28:51.580Z,656
2018-05-07T08:29:52.158Z,656
2018-05-07T08:30:52.741Z,660
2018-05-07T08:31:53.318Z,660
2018-05-07T08:32:53.898Z,656
2018-05-07T08:33:54.480Z,660
2018-05-07T08:34:55.061Z,660
2018-05-07T08:35:55.640Z,664
2018-05-07T08:36:56.281Z,664
2018-05-07T08:37:56.863Z,664
2018-05-07T08:38:57.443Z,668
2018-05-07T08:39:58.058Z,668
2018-05-07T08:40:58.604Z,672
2018-05-07T08:41:59.191Z,672
2018-05-07T08:42:59.766Z,672
2018-05-07T08:44:00.376Z,676
2018-05-07T08:45:00.927Z,676
2018-05-07T08:46:01.515Z,676
2018-05-07T08:47:02.105Z,676
2018-05-07T08:48:02.687Z,680
2018-05-07T08:49:03.269Z,684
2018-05-07T08:50:03.847Z,680
2018-05-07T08:51:04.499Z,684
2018-05-07T08:52:05.010Z,688
2018-05-07T08:53:05.609Z,684
2018-05-07T08:54:06.174Z,688
2018-05-07T08:55:06.765Z,688
2018-05-07T08:56:07.348Z,688
2018-05-07T08:57:07.940Z,692
2018-05-07T08:58:08.546Z,692
2018-05-07T08:59:09.099Z,692
2018-05-07T09:00:09.680Z,688
2018-05-07T09:01:10.261Z,696
2018-05-07T09:02:10.845Z,696
2018-05-07T09:03:11.424Z,696
2018-05-07T09:04:12.004Z,696
2018-05-07T09:05:12.585Z,696
2018-05-07T09:06:13.168Z,696
2018-05-07T09:07:13.751Z,700
2018-05-07T09:08:14.328Z,700
2018-05-07T09:09:14.910Z,700
2018-05-07T09:10:15.491Z,700
2018-05-07T09:11:16.073Z,696
2018-05-07T09:12:16.653Z,700
2018-05-07T09:13:17.236Z,700
2018-05-07T09:14:17.819Z,700
2018-05-07T09:15:18.399Z,704
2018-05-07T09:16:18.980Z,700
2018-05-07T09:17:19.572Z,700
2018-05-07T09:18:20.163Z,704
2018-05-07T09:19:20.743Z,704
2018-05-07T09:20:21.324Z,704
2018-05-07T09:21:21.905Z,704
2018-05-07T09:22:22.487Z,704
2018-05-07T09:23:23.071Z,704
2018-05-07T09:24:23.663Z,704
2018-05-07T09:25:24.231Z,704
2018-05-07T09:26:24.811Z,708
2018-05-07T09:27:25.403Z,708
2018-05-07T09:28:25.982Z,708
2018-05-07T09:29:26.574Z,708
2018-05-07T09:30:27.154Z,708
2018-05-07T09:31:27.778Z,708
2018-05-07T09:32:28.316Z,708
2018-05-07T09:33:28.912Z,708
2018-05-07T09:34:29.489Z,712
2018-05-07T09:35:30.068Z,708
2018-05-07T09:36:30.650Z,708
2018-05-07T09:37:31.231Z,712
2018-05-07T09:38:31.863Z,712
2018-05-07T09:39:32.396Z,708
2018-05-07T09:40:32.985Z,712
2018-05-07T09:41:33.565Z,708
2018-05-07T09:42:34.184Z,708
2018-05-07T09:43:34.729Z,712
2018-05-07T09:44:35.320Z,708
2018-05-07T09:45:35.904Z,708
2018-05-07T09:46:36.486Z,708
2018-05-07T09:47:37.079Z,708
2018-05-07T09:48:37.659Z,712
2018-05-07T09:49:38.241Z,712
2018-05-07T09:50:38.822Z,708
2018-05-07T09:51:39.404Z,712
2018-05-07T09:52:39.986Z,716
2018-05-07T09:53:40.567Z,716
2018-05-07T09:54:41.147Z,716
2018-05-07T09:55:41.750Z,716
2018-05-07T09:56:42.402Z,708
2018-05-07T09:57:42.891Z,716
2018-05-07T09:58:43.472Z,716
2018-05-07T09:59:44.064Z,716
2018-05-07T10:00:44.646Z,720
2018-05-07T10:01:45.227Z,716
2018-05-07T10:02:45.807Z,716
2018-05-07T10:03:46.389Z,716
2018-05-07T10:04:46.970Z,716
2018-05-07T10:05:47.552Z,716
2018-05-07T10:06:48.134Z,716
2018-05-07T10:07:48.716Z,720
2018-05-07T10:08:49.297Z,720
2018-05-07T10:09:49.879Z,716
2018-05-07T10:10:50.461Z,720
2018-05-07T10:11:51.041Z,720
2018-05-07T10:12:51.624Z,716
2018-05-07T10:13:52.205Z,720
2018-05-07T10:14:52.785Z,720
2018-05-07T10:15:53.368Z,720
2018-05-07T10:16:53.949Z,720
2018-05-07T10:17:54.531Z,720
2018-05-07T10:18:55.114Z,720
2018-05-07T10:19:55.699Z,724
2018-05-07T10:20:56.276Z,720
2018-05-07T10:21:56.856Z,720
2018-05-07T10:22:57.448Z,724
2018-05-07T10:23:58.033Z,720
2018-05-07T10:24:58.611Z,720
2018-05-07T10:25:59.194Z,724
2018-05-07T10:26:59.775Z,724
2018-05-07T10:28:00.355Z,724
2018-05-07T10:29:00.936Z,724
2018-05-07T10:30:01.536Z,724
2018-05-07T10:31:02.122Z,728
2018-05-07T10:32:02.700Z,724
2018-05-07T10:33:03.282Z,728
2018-05-07T10:34:03.863Z,728
2018-05-07T10:35:04.455Z,724
2018-05-07T10:36:05.036Z,724
2018-05-07T10:37:05.616Z,728
2018-05-07T10:38:06.198Z,728
2018-05-07T10:39:06.781Z,732
2018-05-07T10:40:07.363Z,728
2018-05-07T10:41:07.944Z,732
2018-05-07T10:42:08.525Z,732
2018-05-07T10:43:09.108Z,728
2018-05-07T10:44:09.690Z,724
2018-05-07T10:45:10.272Z,732
2018-05-07T10:46:10.853Z,736
2018-05-07T10:47:11.440Z,740
2018-05-07T10:48:12.029Z,740
2018-05-07T10:49:12.612Z,740
2018-05-07T10:50:13.193Z,740
2018-05-07T10:51:13.775Z,740
2018-05-07T10:52:14.358Z,740
2018-05-07T10:53:14.941Z,740
2018-05-07T10:54:15.520Z,740
2018-05-07T10:55:16.110Z,744
2018-05-07T10:56:16.779Z,744
2018-05-07T10:57:17.274Z,740
2018-05-07T10:58:17.857Z,740
2018-05-07T10:59:18.441Z,744
2018-05-07T11:00:19.019Z,744
2018-05-07T11:01:19.602Z,744
2018-05-07T11:02:20.183Z,740
2018-05-07T11:03:20.765Z,744
2018-05-07T11:04:21.347Z,744
2018-05-07T11:05:21.928Z,744
2018-05-07T11:06:22.512Z,748
2018-05-07T11:07:23.114Z,748
2018-05-07T11:08:23.687Z,748
2018-05-07T11:09:24.277Z,748
2018-05-07T11:10:24.862Z,748
2018-05-07T11:11:25.443Z,748
2018-05-07T11:12:26.026Z,752
2018-05-07T11:13:26.605Z,748
2018-05-07T11:14:27.185Z,752
2018-05-07T11:15:27.769Z,756
2018-05-07T11:16:28.350Z,760
2018-05-07T11:17:28.932Z,756
2018-05-07T11:18:29.513Z,752
2018-05-07T11:19:30.094Z,756
2018-05-07T11:20:30.677Z,756
2018-05-07T11:21:31.259Z,760
2018-05-07T11:22:31.841Z,760
2018-05-07T11:23:32.424Z,760
2018-05-07T11:24:33.002Z,764
2018-05-07T11:25:33.585Z,764
2018-05-07T11:26:34.167Z,768
2018-05-07T11:27:34.750Z,760
2018-05-07T11:28:35.332Z,764
2018-05-07T11:29:35.914Z,764
2018-05-07T11:30:36.499Z,768
2018-05-07T11:31:37.081Z,768
2018-05-07T11:32:37.663Z,768
2018-05-07T11:33:38.247Z,768
2018-05-07T11:34:38.829Z,768
2018-05-07T11:35:39.409Z,768
2018-05-07T11:36:39.992Z,768
2018-05-07T11:37:40.572Z,772
2018-05-07T11:38:41.154Z,772
2018-05-07T11:39:41.737Z,768
2018-05-07T11:40:42.345Z,772
2018-05-07T11:41:42.901Z,772
2018-05-07T11:42:43.484Z,776
2018-05-07T11:43:44.067Z,776
2018-05-07T11:44:44.649Z,776
2018-05-07T11:45:45.230Z,768
2018-05-07T11:46:45.811Z,768
2018-05-07T11:47:46.469Z,772
2018-05-07T11:48:46.985Z,768
2018-05-07T11:49:47.567Z,772
2018-05-07T11:50:48.149Z,768
2018-05-07T11:51:48.734Z,772
2018-05-07T11:52:49.315Z,772
2018-05-07T11:53:49.897Z,772
2018-05-07T11:54:50.480Z,772
2018-05-07T11:55:51.062Z,776
2018-05-07T11:56:51.644Z,776
2018-05-07T11:57:52.226Z,776
2018-05-07T11:58:52.808Z,784
2018-05-07T11:59:53.391Z,784
2018-05-07T12:00:53.973Z,780
2018-05-07T12:01:54.554Z,780
2018-05-07T12:02:55.135Z,784
2018-05-07T12:03:55.718Z,780
2018-05-07T12:04:56.311Z,784
2018-05-07T12:05:56.892Z,784
2018-05-07T12:06:57.486Z,784
2018-05-07T12:07:58.068Z,788
2018-05-07T12:08:58.658Z,788
2018-05-07T12:09:59.238Z,788
2018-05-07T12:10:59.825Z,792
2018-05-07T12:12:00.408Z,788
2018-05-07T12:13:00.989Z,804
2018-05-07T12:14:01.570Z,796
2018-05-07T12:15:02.152Z,792
2018-05-07T12:16:02.837Z,796
2018-05-07T12:17:03.323Z,796
2018-05-07T12:18:03.904Z,796
2018-05-07T12:19:04.487Z,804
2018-05-07T12:20:05.071Z,808
2018-05-07T12:21:05.652Z,808
2018-05-07T12:22:06.234Z,808
2018-05-07T12:23:06.894Z,808
2018-05-07T12:24:07.406Z,808
2018-05-07T12:25:07.988Z,812
2018-05-07T12:26:08.582Z,812
2018-05-07T12:27:09.169Z,812
2018-05-07T12:28:09.757Z,844
2018-05-07T12:29:10.345Z,848
2018-05-07T12:30:10.927Z,852
2018-05-07T12:31:11.521Z,852
2018-05-07T12:32:12.094Z,852
2018-05-07T12:33:12.679Z,856
2018-05-07T12:34:13.256Z,860
2018-05-07T12:35:13.838Z,860
2018-05-07T12:36:14.422Z,864
2018-05-07T12:37:15.005Z,864
2018-05-07T12:38:15.587Z,868
2018-05-07T12:39:16.172Z,868
2018-05-07T12:40:16.763Z,868
2018-05-07T12:41:17.356Z,872
2018-05-07T12:42:17.937Z,876
2018-05-07T12:43:18.521Z,876
2018-05-07T12:44:19.112Z,880
2018-05-07T12:45:19.694Z,880
2018-05-07T12:46:20.276Z,880
2018-05-07T12:47:20.858Z,884
2018-05-07T12:48:21.442Z,888
2018-05-07T12:49:22.026Z,888
2018-05-07T12:50:22.608Z,888
2018-05-07T12:51:23.190Z,888
2018-05-07T12:52:23.854Z,888
2018-05-07T12:53:24.357Z,892
2018-05-07T12:54:24.946Z,896
2018-05-07T12:55:25.531Z,896
2018-05-07T12:56:26.111Z,900
2018-05-07T12:57:26.695Z,900
2018-05-07T12:58:27.277Z,900
2018-05-07T12:59:27.861Z,904
2018-05-07T13:00:28.443Z,908
2018-05-07T13:01:29.026Z,912
2018-05-07T13:02:29.608Z,912
2018-05-07T13:03:30.192Z,916
2018-05-07T13:04:30.787Z,916
2018-05-07T13:05:31.366Z,924
2018-05-07T13:06:31.950Z,924
2018-05-07T13:07:32.535Z,928
2018-05-07T13:08:33.117Z,932
2018-05-07T13:09:33.698Z,932
2018-05-07T13:10:34.279Z,940
2018-05-07T13:11:34.943Z,944
2018-05-07T13:12:35.446Z,944
2018-05-07T13:13:36.041Z,948
2018-05-07T13:14:36.622Z,948
2018-05-07T13:15:37.203Z,952
2018-05-07T13:16:37.796Z,956
2018-05-07T13:17:38.380Z,956
2018-05-07T13:18:38.961Z,964
2018-05-07T13:19:39.543Z,964
2018-05-07T13:20:40.127Z,968
2018-05-07T13:21:40.709Z,968
2018-05-07T13:22:41.294Z,976
2018-05-07T13:23:41.877Z,980
2018-05-07T13:24:42.455Z,980
2018-05-07T13:25:43.039Z,984
2018-05-07T13:26:43.620Z,988
2018-05-07T13:27:44.204Z,1004
2018-05-07T13:28:44.786Z,992
2018-05-07T13:29:45.383Z,996
2018-05-07T13:30:45.972Z,996
2018-05-07T13:31:46.555Z,996
2018-05-07T13:32:47.138Z,1004
2018-05-07T13:33:47.722Z,1004
2018-05-07T13:34:48.306Z,1008
2018-05-07T13:35:48.900Z,1012
2018-05-07T13:36:49.546Z,1012
2018-05-07T13:37:50.079Z,1016
2018-05-07T13:38:50.667Z,1016
2018-05-07T13:39:51.251Z,1016
2018-05-07T13:40:51.828Z,1020
2018-05-07T13:41:52.412Z,1028
2018-05-07T13:42:52.998Z,1032
2018-05-07T13:43:53.582Z,1032
2018-05-07T13:44:54.174Z,1032
2018-05-07T13:45:54.762Z,1040
2018-05-07T13:46:55.340Z,1044
2018-05-07T13:47:55.928Z,1044
2018-05-07T13:48:56.508Z,1048
2018-05-07T13:49:57.093Z,1052
2018-05-07T13:50:57.676Z,1060
2018-05-07T13:51:58.265Z,1060
2018-05-07T13:52:58.847Z,1060
2018-05-07T13:53:59.433Z,1064
2018-05-07T13:55:00.013Z,1068
2018-05-07T13:56:00.598Z,1072
2018-05-07T13:57:01.183Z,1072
2018-05-07T13:58:01.766Z,1076
2018-05-07T13:59:02.350Z,1076
2018-05-07T14:00:02.933Z,1084
2018-05-07T14:01:03.518Z,1084
2018-05-07T14:02:04.103Z,1088
2018-05-07T14:03:04.687Z,1092
2018-05-07T14:04:05.272Z,1096
2018-05-07T14:05:05.853Z,1100
2018-05-07T14:06:06.438Z,1104
2018-05-07T14:07:07.033Z,1108
2018-05-07T14:08:07.617Z,1108
2018-05-07T14:09:08.202Z,1116